Time;durP1;ratioP1;P1;durP2;ratioP2;P2;SDS_P1;SDS_P2;PMS_P1;PMS_P2;Temp;Humidity;BMP_temperature;BMP_pressure;BME280_temperature;BME280_humidity;BME280_pressure;Samples;Min_cycle;Max_cycle;Signal;HPM_P1;HPM_P2
2021/07/27 00:03:33;;;;;;;;;;;24.10;51.50;;;;;;8335213;28;19951;-46
2021/07/27 00:07:37;;;;;;;;;;;24.00;51.50;;;;;;8335250;28;19921;-46
2021/07/27 00:11:38;;;;;;;;;;;24.10;51.50;;;;;;8334629;28;19924;-49
2021/07/27 00:15:38;;;;;;;;;;;24.10;51.50;;;;;;8335706;28;19913;-48
2021/07/27 00:19:38;;;;;;;;;;;24.10;51.50;;;;;;8334939;28;19951;-47
2021/07/27 00:23:39;;;;;;;;;;;24.00;51.50;;;;;;8334327;28;19929;-46
2021/07/27 00:27:40;;;;;;;;;;;24.00;51.50;;;;;;8335077;28;19917;-47
2021/07/27 00:31:41;;;;;;;;;;;24.00;51.50;;;;;;8335340;28;19921;-47
2021/07/27 00:35:41;;;;;;;;;;;24.00;51.50;;;;;;8333963;28;19917;-51
2021/07/27 00:39:42;;;;;;;;;;;24.00;51.50;;;;;;8334555;28;19921;-48
2021/07/27 00:43:43;;;;;;;;;;;24.00;51.50;;;;;;8334301;28;20400;-49
2021/07/27 00:47:43;;;;;;;;;;;24.00;51.50;;;;;;8333730;28;19925;-46
2021/07/27 00:51:44;;;;;;;;;;;24.00;51.50;;;;;;8334869;28;19975;-46
2021/07/27 00:55:45;;;;;;;;;;;24.00;51.50;;;;;;8334042;28;19924;-50
2021/07/27 00:59:46;;;;;;;;;;;24.00;51.50;;;;;;8333887;28;19921;-47
2021/07/27 01:03:46;;;;;;;;;;;24.00;51.50;;;;;;8333657;28;20421;-48
2021/07/27 01:07:48;;;;;;;;;;;24.00;51.50;;;;;;8333644;28;19928;-47
2021/07/27 01:11:48;;;;;;;;;;;23.90;51.40;;;;;;8333417;28;19976;-47
2021/07/27 01:15:49;;;;;;;;;;;24.00;51.50;;;;;;8333109;28;19917;-47
2021/07/27 01:19:56;;;;;;;;;;;23.90;51.40;;;;;;8332600;28;19917;-46
2021/07/27 01:45:13;;;;;;;;;;;23.90;51.40;;;;;;8332697;28;20259;-47
2021/07/27 01:49:14;;;;;;;;;;;23.90;51.40;;;;;;8332999;28;19990;-48
2021/07/27 01:53:15;;;;;;;;;;;23.90;51.40;;;;;;8331511;28;19917;-46
2021/07/27 01:57:16;;;;;;;;;;;23.80;51.30;;;;;;8332165;28;19917;-46
2021/07/27 02:01:18;;;;;;;;;;;23.90;51.40;;;;;;8331697;28;19932;-46
2021/07/27 02:05:19;;;;;;;;;;;23.90;51.40;;;;;;8331615;28;20397;-47
2021/07/27 02:09:19;;;;;;;;;;;23.80;51.40;;;;;;8331816;28;19917;-47
2021/07/27 02:13:28;;;;;;;;;;;23.90;51.40;;;;;;8331112;28;19917;-47
2021/07/27 02:17:29;;;;;;;;;;;23.80;51.40;;;;;;8330855;28;19917;-47
2021/07/27 02:21:29;;;;;;;;;;;23.80;51.40;;;;;;8331095;28;19928;-47
2021/07/27 02:25:30;;;;;;;;;;;23.80;51.40;;;;;;8331954;28;20366;-46
2021/07/27 02:29:30;;;;;;;;;;;23.80;51.40;;;;;;8330495;28;20382;-46
2021/07/27 02:33:36;;;;;;;;;;;23.80;51.40;;;;;;8331308;28;19917;-47
2021/07/27 02:37:36;;;;;;;;;;;23.80;51.40;;;;;;8330876;28;19943;-46
2021/07/27 02:41:37;;;;;;;;;;;23.80;51.30;;;;;;8330822;28;20012;-47
2021/07/27 02:45:37;;;;;;;;;;;23.80;51.30;;;;;;8330871;28;19940;-46
2021/07/27 02:49:38;;;;;;;;;;;23.80;51.30;;;;;;8330692;28;19917;-47
2021/07/27 02:53:38;;;;;;;;;;;23.80;51.40;;;;;;8329916;28;19917;-48
2021/07/27 02:57:39;;;;;;;;;;;23.80;51.40;;;;;;8330717;28;19921;-47
2021/07/27 03:01:40;;;;;;;;;;;23.80;51.40;;;;;;8330992;28;19925;-47
2021/07/27 03:05:40;;;;;;;;;;;23.70;51.30;;;;;;8329870;28;20355;-46
2021/07/27 03:10:17;;;;;;;;;;;23.80;51.40;;;;;;8330236;28;20027;-47
2021/07/27 03:14:01;;;;;;;;;;;23.70;51.30;;;;;;8329642;28;20316;-46
2021/07/27 03:18:02;;;;;;;;;;;23.70;51.30;;;;;;8330924;28;19924;-47
2021/07/27 03:22:02;;;;;;;;;;;23.70;51.30;;;;;;8330120;28;20024;-47
2021/07/27 03:26:03;;;;;;;;;;;23.70;51.30;;;;;;8331338;28;20036;-47
2021/07/27 03:30:03;;;;;;;;;;;23.70;51.30;;;;;;8336504;28;19944;-46
2021/07/27 03:34:04;;;;;;;;;;;23.70;51.30;;;;;;8336333;28;19917;-46
2021/07/27 03:38:05;;;;;;;;;;;23.70;51.30;;;;;;8336321;28;20358;-47
2021/07/27 03:42:05;;;;;;;;;;;23.70;51.30;;;;;;8336038;28;19932;-47
2021/07/27 03:46:06;;;;;;;;;;;23.70;51.30;;;;;;8336088;28;19924;-47
2021/07/27 03:50:07;;;;;;;;;;;23.70;51.30;;;;;;8335406;28;19917;-48
2021/07/27 03:54:08;;;;;;;;;;;23.70;51.30;;;;;;8336718;28;20321;-47
2021/07/27 03:58:08;;;;;;;;;;;23.70;51.30;;;;;;8335568;28;19917;-48
2021/07/27 04:02:08;;;;;;;;;;;23.70;51.30;;;;;;8335125;28;19925;-48
2021/07/27 04:06:09;;;;;;;;;;;23.70;51.30;;;;;;8335145;28;19964;-46
2021/07/27 04:10:10;;;;;;;;;;;23.70;51.30;;;;;;8336359;28;20355;-47
2021/07/27 04:14:10;;;;;;;;;;;23.60;51.20;;;;;;8334625;28;19917;-47
2021/07/27 04:18:11;;;;;;;;;;;23.70;51.30;;;;;;8334988;28;19924;-47
2021/07/27 04:22:11;;;;;;;;;;;23.70;51.30;;;;;;8334806;28;20015;-47
2021/07/27 04:26:12;;;;;;;;;;;23.60;51.20;;;;;;8334382;28;20392;-47
2021/07/27 04:30:12;;;;;;;;;;;23.60;51.20;;;;;;8335306;28;20396;-48
2021/07/27 04:34:12;;;;;;;;;;;23.60;51.20;;;;;;8334407;28;19921;-46
2021/07/27 04:38:13;;;;;;;;;;;23.60;51.20;;;;;;8333518;28;20439;-46
2021/07/27 04:42:13;;;;;;;;;;;23.60;51.20;;;;;;8334382;28;19925;-46
2021/07/27 04:46:14;;;;;;;;;;;23.60;51.20;;;;;;8334993;28;19913;-46
2021/07/27 04:50:14;;;;;;;;;;;23.60;51.20;;;;;;8333734;28;19917;-46
2021/07/27 04:54:26;;;;;;;;;;;23.60;51.20;;;;;;8334064;28;19918;-47
2021/07/27 04:58:26;;;;;;;;;;;23.60;51.20;;;;;;8336362;28;19921;-47
2021/07/27 05:02:26;;;;;;;;;;;23.60;51.20;;;;;;8333354;28;20400;-47
2021/07/27 05:06:27;;;;;;;;;;;23.60;51.30;;;;;;8334168;28;19928;-46
2021/07/27 05:10:28;;;;;;;;;;;23.50;51.20;;;;;;8333564;28;19917;-46
2021/07/27 05:14:28;;;;;;;;;;;23.60;51.20;;;;;;8332976;28;19924;-47
2021/07/27 05:18:29;;;;;;;;;;;23.60;51.20;;;;;;8333418;28;19924;-47
2021/07/27 05:22:30;;;;;;;;;;;23.60;51.20;;;;;;8333765;28;19928;-47
2021/07/27 05:26:30;;;;;;;;;;;23.60;51.20;;;;;;8332603;28;19917;-47
2021/07/27 05:30:30;;;;;;;;;;;23.60;51.20;;;;;;8332842;28;19979;-46
2021/07/27 05:34:31;;;;;;;;;;;23.60;51.20;;;;;;8332519;28;19924;-46
2021/07/27 05:38:31;;;;;;;;;;;23.60;51.10;;;;;;8332802;28;19919;-47
2021/07/27 05:42:32;;;;;;;;;;;23.60;51.20;;;;;;8332495;28;19936;-47
2021/07/27 05:46:32;;;;;;;;;;;23.60;51.20;;;;;;8332288;28;19994;-46
2021/07/27 05:50:32;;;;;;;;;;;23.60;51.10;;;;;;8330736;28;19924;-46
2021/07/27 05:54:33;;;;;;;;;;;23.60;51.10;;;;;;8331915;28;20421;-47
2021/07/27 05:58:33;;;;;;;;;;;23.60;51.10;;;;;;8332463;28;20278;-47
2021/07/27 06:02:34;;;;;;;;;;;23.60;51.10;;;;;;8331229;28;19929;-47
2021/07/27 06:06:35;;;;;;;;;;;23.60;51.10;;;;;;8331378;28;19928;-49
2021/07/27 06:10:35;;;;;;;;;;;23.60;51.10;;;;;;8331516;28;19971;-46
2021/07/27 06:14:36;;;;;;;;;;;23.60;51.10;;;;;;8331575;28;19913;-47
2021/07/27 06:18:36;;;;;;;;;;;23.60;51.10;;;;;;8331576;28;19921;-47
2021/07/27 06:22:36;;;;;;;;;;;23.60;51.00;;;;;;8331161;28;19970;-46
2021/07/27 06:26:37;;;;;;;;;;;23.60;51.00;;;;;;8330502;28;19917;-46
2021/07/27 06:30:38;;;;;;;;;;;23.60;51.50;;;;;;8331258;28;19913;-47
2021/07/27 06:34:38;;;;;;;;;;;23.60;51.00;;;;;;8331191;28;19945;-49
2021/07/27 06:38:39;;;;;;;;;;;23.60;51.00;;;;;;8330269;28;19987;-47
2021/07/27 06:42:39;;;;;;;;;;;23.60;51.00;;;;;;8330506;28;20352;-46
2021/07/27 06:46:40;;;;;;;;;;;23.60;51.00;;;;;;8330643;28;19983;-46
2021/07/27 06:50:40;;;;;;;;;;;23.60;51.00;;;;;;8330758;28;19920;-46
2021/07/27 06:54:40;;;;;;;;;;;23.60;51.00;;;;;;8330399;28;20011;-46
2021/07/27 06:58:41;;;;;;;;;;;23.60;50.90;;;;;;8330276;28;20294;-49
2021/07/27 07:02:42;;;;;;;;;;;23.60;51.00;;;;;;8329636;28;19953;-47
2021/07/27 07:06:42;;;;;;;;;;;23.60;51.00;;;;;;8330851;28;19967;-47
2021/07/27 07:10:43;;;;;;;;;;;23.70;51.00;;;;;;8330172;28;19979;-47
2021/07/27 07:14:43;;;;;;;;;;;23.60;50.90;;;;;;8329475;28;20282;-48
2021/07/27 07:18:43;;;;;;;;;;;23.60;51.00;;;;;;8330076;28;19917;-46
2021/07/27 07:22:44;;;;;;;;;;;23.70;51.00;;;;;;8330307;28;19921;-47
2021/07/27 07:26:46;;;;;;;;;;;23.70;51.00;;;;;;8330112;28;19921;-47
2021/07/27 07:30:47;;;;;;;;;;;23.70;51.00;;;;;;8329826;28;19918;-46
2021/07/27 07:34:47;;;;;;;;;;;23.70;51.00;;;;;;8329582;28;19917;-46
2021/07/27 07:38:48;;;;;;;;;;;23.70;50.90;;;;;;8329951;28;20346;-50
2021/07/27 07:42:48;;;;;;;;;;;23.70;51.00;;;;;;8330327;28;19922;-49
2021/07/27 07:46:49;;;;;;;;;;;23.70;50.90;;;;;;8329263;28;19921;-48
2021/07/27 07:50:49;;;;;;;;;;;23.70;50.90;;;;;;8329418;28;19962;-46
2021/07/27 07:54:49;;;;;;;;;;;23.70;51.00;;;;;;8329359;28;19921;-48
2021/07/27 07:58:50;;;;;;;;;;;23.70;51.00;;;;;;8329733;28;20369;-47
2021/07/27 08:02:51;;;;;;;;;;;23.70;51.00;;;;;;8329763;28;19972;-47
2021/07/27 08:06:52;;;;;;;;;;;23.70;51.00;;;;;;8329626;28;19921;-47
2021/07/27 08:10:52;;;;;;;;;;;23.70;51.00;;;;;;8328828;28;20015;-47
2021/07/27 08:14:53;;;;;;;;;;;23.70;51.00;;;;;;8334779;28;19917;-47
2021/07/27 08:18:53;;;;;;;;;;;23.70;51.00;;;;;;8335798;28;19920;-46
2021/07/27 08:22:54;;;;;;;;;;;23.80;51.00;;;;;;8334370;28;19924;-47
2021/07/27 08:26:54;;;;;;;;;;;23.80;51.00;;;;;;8334988;28;19921;-47
2021/07/27 08:30:56;;;;;;;;;;;23.80;51.00;;;;;;8334619;28;19956;-47
2021/07/27 08:34:57;;;;;;;;;;;23.80;51.00;;;;;;8334827;28;19917;-50
2021/07/27 08:38:57;;;;;;;;;;;23.80;51.00;;;;;;8334329;28;19944;-48
2021/07/27 08:42:58;;;;;;;;;;;23.80;51.50;;;;;;8334272;28;20310;-47
2021/07/27 08:46:59;;;;;;;;;;;23.80;51.00;;;;;;8333702;28;19957;-47
2021/07/27 08:51:00;;;;;;;;;;;23.80;51.00;;;;;;8335253;28;20334;-46
2021/07/27 08:55:01;;;;;;;;;;;23.80;51.00;;;;;;8334041;28;19923;-46
2021/07/27 08:59:01;;;;;;;;;;;23.80;51.00;;;;;;8333566;28;19917;-47
2021/07/27 09:03:11;;;;;;;;;;;23.80;51.00;;;;;;8333634;28;19934;-47
2021/07/27 09:07:11;;;;;;;;;;;23.80;51.00;;;;;;8333316;28;19921;-47
2021/07/27 09:11:12;;;;;;;;;;;23.90;51.00;;;;;;8333685;28;20048;-46
2021/07/27 09:15:13;;;;;;;;;;;23.90;51.00;;;;;;8333440;28;20065;-47
2021/07/27 09:19:14;;;;;;;;;;;23.90;51.50;;;;;;8333023;28;19917;-46
2021/07/27 09:23:18;;;;;;;;;;;23.90;51.00;;;;;;8331416;28;19925;-47
2021/07/27 09:27:26;;;;;;;;;;;24.00;51.10;;;;;;8333632;28;19921;-47
2021/07/27 09:31:26;;;;;;;;;;;23.90;51.00;;;;;;8332685;28;20371;-47
2021/07/27 09:35:30;;;;;;;;;;;24.00;51.00;;;;;;8332073;28;19918;-47
2021/07/27 09:39:31;;;;;;;;;;;24.00;51.00;;;;;;8332825;28;19917;-46
2021/07/27 09:43:31;;;;;;;;;;;24.00;51.10;;;;;;8332569;28;19929;-46
2021/07/27 09:47:32;;;;;;;;;;;24.00;51.00;;;;;;8332663;28;19913;-47
2021/07/27 09:51:33;;;;;;;;;;;24.00;51.00;;;;;;8332097;28;19959;-46
2021/07/27 09:55:36;;;;;;;;;;;24.00;51.00;;;;;;8332220;28;19924;-47
2021/07/27 09:59:36;;;;;;;;;;;24.10;51.10;;;;;;8331447;28;19971;-49
2021/07/27 10:03:43;;;;;;;;;;;24.10;51.10;;;;;;8332572;28;19957;-48
2021/07/27 10:07:50;;;;;;;;;;;24.10;51.10;;;;;;8332279;28;19925;-47
2021/07/27 10:11:52;;;;;;;;;;;24.10;51.00;;;;;;8331286;28;19988;-46
2021/07/27 10:15:54;;;;;;;;;;;24.10;51.00;;;;;;8331684;28;19917;-47
2021/07/27 10:19:57;;;;;;;;;;;24.10;51.00;;;;;;8330933;28;19978;-47
2021/07/27 10:24:08;;;;;;;;;;;24.10;51.00;;;;;;8331982;28;19922;-48
2021/07/27 10:28:09;;;;;;;;;;;24.20;51.00;;;;;;8331277;28;19917;-47
2021/07/27 10:32:13;;;;;;;;;;;24.20;51.00;;;;;;8330625;28;19917;-47
2021/07/27 10:36:23;;;;;;;;;;;24.20;51.00;;;;;;8330755;28;20011;-49
2021/07/27 10:40:28;;;;;;;;;;;24.20;50.90;;;;;;8331089;28;20397;-49
2021/07/27 10:44:34;;;;;;;;;;;24.30;51.00;;;;;;8331084;28;19928;-48
2021/07/27 10:48:35;;;;;;;;;;;24.30;50.90;;;;;;8330772;28;20277;-47
2021/07/27 10:52:35;;;;;;;;;;;24.30;50.90;;;;;;8330527;28;19918;-48
2021/07/27 10:56:36;;;;;;;;;;;24.30;50.90;;;;;;8329908;28;19917;-47
2021/07/27 11:00:37;;;;;;;;;;;24.40;50.90;;;;;;8330906;28;20297;-47
2021/07/27 11:04:37;;;;;;;;;;;24.40;50.80;;;;;;8330473;28;19947;-49
2021/07/27 11:08:38;;;;;;;;;;;24.40;50.80;;;;;;8329774;28;20378;-46
2021/07/27 11:12:41;;;;;;;;;;;24.50;50.80;;;;;;8330403;28;19928;-46
2021/07/27 11:16:42;;;;;;;;;;;24.50;50.80;;;;;;8330729;28;19917;-47
2021/07/27 11:20:42;;;;;;;;;;;24.50;50.70;;;;;;8329823;28;19921;-48
2021/07/27 11:24:43;;;;;;;;;;;24.50;50.70;;;;;;8330152;28;20002;-47
2021/07/27 11:28:43;;;;;;;;;;;24.50;50.70;;;;;;8329993;28;20013;-48
2021/07/27 11:32:50;;;;;;;;;;;24.50;50.70;;;;;;8329359;28;19917;-46
2021/07/27 11:36:52;;;;;;;;;;;24.60;50.70;;;;;;8330378;28;19913;-48
2021/07/27 11:41:04;;;;;;;;;;;24.60;50.70;;;;;;8329290;28;19917;-48
2021/07/27 11:45:05;;;;;;;;;;;24.60;50.70;;;;;;8329625;28;19992;-47
2021/07/27 11:49:08;;;;;;;;;;;24.60;50.70;;;;;;8334547;28;19913;-46
2021/07/27 11:53:32;;;;;;;;;;;24.60;50.70;;;;;;8335773;28;19924;-46
2021/07/27 11:57:34;;;;;;;;;;;24.70;50.70;;;;;;8336682;28;19964;-46
2021/07/27 12:01:38;;;;;;;;;;;24.60;50.60;;;;;;8335761;28;19967;-46
2021/07/27 12:05:38;;;;;;;;;;;24.70;50.70;;;;;;8334809;28;20300;-47
2021/07/27 12:09:39;;;;;;;;;;;24.60;50.60;;;;;;8335612;28;19917;-47
2021/07/27 12:13:39;;;;;;;;;;;24.60;50.60;;;;;;8335925;28;19913;-47
2021/07/27 12:17:40;;;;;;;;;;;24.70;50.60;;;;;;8334644;28;20302;-49
2021/07/27 12:21:43;;;;;;;;;;;24.70;50.60;;;;;;8334531;28;21332;-48
2021/07/27 12:25:43;;;;;;;;;;;24.70;50.60;;;;;;8334866;28;19917;-47
2021/07/27 12:29:44;;;;;;;;;;;24.70;50.60;;;;;;8334227;28;19924;-46
2021/07/27 12:33:45;;;;;;;;;;;24.70;50.60;;;;;;8335548;28;19917;-46
2021/07/27 12:37:45;;;;;;;;;;;24.80;50.60;;;;;;8334468;28;19917;-48
2021/07/27 12:41:46;;;;;;;;;;;24.80;50.60;;;;;;8334143;28;19925;-47
2021/07/27 12:45:46;;;;;;;;;;;24.80;50.60;;;;;;8334308;28;19975;-48
2021/07/27 12:49:47;;;;;;;;;;;24.70;50.60;;;;;;8334376;28;20038;-52
2021/07/27 12:53:50;;;;;;;;;;;24.80;50.60;;;;;;8334188;28;19917;-50
2021/07/27 12:57:50;;;;;;;;;;;24.70;50.60;;;;;;8333540;28;19917;-50
2021/07/27 13:01:51;;;;;;;;;;;24.80;50.60;;;;;;8333422;28;20320;-48
2021/07/27 13:05:52;;;;;;;;;;;24.70;50.60;;;;;;8334302;28;19921;-51
2021/07/27 13:09:53;;;;;;;;;;;24.80;50.60;;;;;;8300733;28;19924;-48
2021/07/27 13:13:53;;;;;;;;;;;24.70;50.50;;;;;;8300221;28;20315;-49
2021/07/27 13:17:56;;;;;;;;;;;24.70;50.50;;;;;;8300836;28;19917;-47
2021/07/27 13:21:57;;;;;;;;;;;24.80;50.60;;;;;;8300289;28;19934;-52
2021/07/27 13:25:57;;;;;;;;;;;24.80;50.60;;;;;;8300398;28;20059;-49
2021/07/27 13:29:58;;;;;;;;;;;24.80;50.60;;;;;;8300032;28;20020;-49
2021/07/27 13:33:58;;;;;;;;;;;24.80;50.60;;;;;;8300012;28;19921;-50
2021/07/27 13:38:00;;;;;;;;;;;24.80;50.50;;;;;;8299551;28;19921;-50
2021/07/27 13:42:00;;;;;;;;;;;24.80;50.50;;;;;;8300268;28;19976;-51
2021/07/27 13:46:01;;;;;;;;;;;24.90;50.50;;;;;;8299703;28;19918;-47
2021/07/27 13:50:02;;;;;;;;;;;24.80;50.40;;;;;;8299023;28;19924;-48
2021/07/27 13:54:03;;;;;;;;;;;24.90;50.50;;;;;;8313191;28;19924;-48
2021/07/27 13:58:03;;;;;;;;;;;24.90;50.50;;;;;;8299469;28;19949;-48
2021/07/27 14:02:04;;;;;;;;;;;24.90;50.50;;;;;;8299341;28;19997;-50
2021/07/27 14:06:04;;;;;;;;;;;24.90;50.40;;;;;;8299268;28;19925;-50
2021/07/27 14:10:05;;;;;;;;;;;24.90;50.50;;;;;;8298588;28;20326;-48
2021/07/27 14:14:06;;;;;;;;;;;24.90;50.50;;;;;;8298257;28;19930;-49
2021/07/27 14:18:06;;;;;;;;;;;24.90;50.40;;;;;;8299750;28;20387;-49
2021/07/27 14:22:07;;;;;;;;;;;24.90;50.40;;;;;;8298748;28;19925;-48
2021/07/27 14:26:07;;;;;;;;;;;24.90;50.40;;;;;;8298377;28;20359;-50
2021/07/27 14:30:08;;;;;;;;;;;24.90;50.40;;;;;;8298686;28;19918;-51
2021/07/27 14:34:08;;;;;;;;;;;24.90;50.40;;;;;;8299029;28;19913;-50
2021/07/27 14:38:09;;;;;;;;;;;24.90;50.40;;;;;;8297776;28;20270;-49
2021/07/27 14:42:09;;;;;;;;;;;25.00;50.40;;;;;;8298272;28;19926;-49
2021/07/27 14:46:10;;;;;;;;;;;25.00;50.40;;;;;;8298163;28;19921;-51
2021/07/27 14:50:10;;;;;;;;;;;25.00;50.40;;;;;;8297529;28;19952;-49
2021/07/27 14:54:11;;;;;;;;;;;25.00;50.40;;;;;;8298308;28;19920;-50
2021/07/27 14:58:12;;;;;;;;;;;25.00;50.40;;;;;;8298104;28;19917;-46
2021/07/27 15:02:12;;;;;;;;;;;25.00;50.40;;;;;;8297241;28;19926;-48
2021/07/27 15:06:13;;;;;;;;;;;25.00;50.30;;;;;;8297657;28;19929;-46
2021/07/27 15:10:14;;;;;;;;;;;25.00;50.30;;;;;;8298239;28;20397;-46
2021/07/27 15:14:15;;;;;;;;;;;25.00;50.30;;;;;;8297029;28;19952;-46
2021/07/27 15:18:15;;;;;;;;;;;25.00;50.30;;;;;;8297502;28;19971;-47
2021/07/27 15:22:16;;;;;;;;;;;25.00;50.30;;;;;;8300753;28;20008;-49
2021/07/27 15:26:16;;;;;;;;;;;25.00;50.40;;;;;;8304032;28;19917;-49
2021/07/27 15:30:17;;;;;;;;;;;25.00;50.40;;;;;;8303596;28;19965;-50
2021/07/27 15:34:17;;;;;;;;;;;25.00;50.40;;;;;;8303692;28;19917;-46
2021/07/27 15:38:18;;;;;;;;;;;25.00;50.40;;;;;;8303070;28;19998;-48
2021/07/27 15:42:19;;;;;;;;;;;25.00;50.40;;;;;;8303492;28;20389;-52
2021/07/27 15:46:21;;;;;;;;;;;25.00;50.40;;;;;;8304023;28;19918;-49
2021/07/27 15:50:22;;;;;;;;;;;25.00;50.40;;;;;;8302616;28;20008;-46
2021/07/27 15:54:22;;;;;;;;;;;25.00;50.30;;;;;;8303347;28;19921;-46
2021/07/27 15:58:23;;;;;;;;;;;25.00;50.30;;;;;;8303093;28;19925;-46
2021/07/27 16:02:23;;;;;;;;;;;25.00;50.40;;;;;;8302941;28;19936;-45
2021/07/27 16:06:24;;;;;;;;;;;25.00;50.90;;;;;;8302715;28;20021;-49
2021/07/27 16:10:24;;;;;;;;;;;25.00;50.40;;;;;;8302438;28;20039;-45
2021/07/27 16:14:25;;;;;;;;;;;25.00;50.40;;;;;;8302008;28;19922;-48
2021/07/27 16:18:25;;;;;;;;;;;25.00;50.40;;;;;;8302750;28;20385;-47
2021/07/27 16:22:26;;;;;;;;;;;25.00;50.40;;;;;;8302777;28;19931;-47
2021/07/27 16:26:26;;;;;;;;;;;25.00;50.40;;;;;;8301554;28;19921;-48
2021/07/27 16:30:27;;;;;;;;;;;24.90;50.30;;;;;;8301775;28;20000;-49
2021/07/27 16:34:27;;;;;;;;;;;24.90;50.30;;;;;;8300853;28;20334;-49
2021/07/27 16:38:27;;;;;;;;;;;25.00;50.40;;;;;;8301935;28;19921;-49
2021/07/27 16:42:28;;;;;;;;;;;25.00;50.40;;;;;;8301735;28;19926;-47
2021/07/27 16:46:29;;;;;;;;;;;25.00;50.40;;;;;;8301315;28;19965;-49
2021/07/27 16:50:29;;;;;;;;;;;25.00;50.40;;;;;;8301126;28;19941;-48
2021/07/27 16:54:30;;;;;;;;;;;25.00;50.40;;;;;;8302063;28;19913;-48
2021/07/27 16:58:30;;;;;;;;;;;25.00;50.40;;;;;;8302720;28;20004;-50
2021/07/27 17:02:31;;;;;;;;;;;24.90;50.40;;;;;;8310224;28;20286;-45
2021/07/27 17:06:31;;;;;;;;;;;25.00;50.70;;;;;;8318125;28;19921;-44
2021/07/27 17:10:32;;;;;;;;;;;24.90;51.10;;;;;;8318844;28;19914;-45
2021/07/27 17:14:32;;;;;;;;;;;24.80;51.40;;;;;;8332136;28;19914;-48
2021/07/27 17:18:33;;;;;;;;;;;24.80;51.80;;;;;;8314665;28;19921;-46
2021/07/27 17:22:41;;;;;;;;;;;24.80;52.10;;;;;;8325086;28;19952;-44
2021/07/27 17:26:41;;;;;;;;;;;24.80;52.30;;;;;;8308575;28;19918;-45
2021/07/27 17:30:41;;;;;;;;;;;24.80;52.60;;;;;;8303535;28;19932;-46
2021/07/27 17:34:47;;;;;;;;;;;24.80;53.20;;;;;;8314882;28;19921;-48
2021/07/27 17:38:47;;;;;;;;;;;24.80;53.40;;;;;;8325368;28;19925;-45
2021/07/27 17:42:47;;;;;;;;;;;24.80;53.60;;;;;;8321907;28;19940;-46
2021/07/27 17:46:48;;;;;;;;;;;24.80;53.30;;;;;;8323700;28;19921;-46
2021/07/27 17:50:48;;;;;;;;;;;24.80;53.30;;;;;;8323916;28;20472;-45
2021/07/27 17:54:49;;;;;;;;;;;24.80;53.10;;;;;;8319645;28;20547;-46
2021/07/27 17:58:49;;;;;;;;;;;24.80;53.60;;;;;;8321348;28;20018;-48
2021/07/27 18:02:50;;;;;;;;;;;24.80;53.50;;;;;;8316759;28;19926;-46
2021/07/27 18:06:50;;;;;;;;;;;24.80;53.50;;;;;;8326853;28;19944;-44
2021/07/27 18:10:51;;;;;;;;;;;24.90;54.30;;;;;;8320595;28;19918;-45
2021/07/27 18:14:51;;;;;;;;;;;25.00;54.60;;;;;;8324444;28;19917;-44
2021/07/27 18:18:52;;;;;;;;;;;25.00;54.60;;;;;;8324387;28;19928;-43
2021/07/27 18:22:53;;;;;;;;;;;25.10;54.60;;;;;;8321411;28;19933;-44
2021/07/27 18:26:53;;;;;;;;;;;25.10;54.40;;;;;;8320045;28;19974;-43
2021/07/27 18:30:54;;;;;;;;;;;25.10;54.30;;;;;;8319473;28;19991;-45
2021/07/27 18:34:54;;;;;;;;;;;25.10;54.00;;;;;;8322387;28;19924;-45
2021/07/27 18:38:54;;;;;;;;;;;25.10;54.30;;;;;;8322262;28;19913;-46
2021/07/27 18:42:55;;;;;;;;;;;25.00;54.10;;;;;;8324149;28;20011;-46
2021/07/27 18:46:55;;;;;;;;;;;25.00;54.10;;;;;;8321311;28;19921;-45
2021/07/27 18:50:56;;;;;;;;;;;25.00;54.10;;;;;;8322357;28;20325;-46
2021/07/27 18:54:56;;;;;;;;;;;25.00;54.00;;;;;;8316176;28;19932;-47
2021/07/27 18:58:57;;;;;;;;;;;25.00;54.30;;;;;;8323976;28;19913;-46
2021/07/27 19:02:57;;;;;;;;;;;25.00;54.70;;;;;;8318862;28;19948;-45
2021/07/27 19:06:58;;;;;;;;;;;25.00;54.80;;;;;;8318542;28;19985;-47
2021/07/27 19:10:58;;;;;;;;;;;25.00;54.70;;;;;;8318729;28;19925;-46
2021/07/27 19:14:59;;;;;;;;;;;25.00;54.60;;;;;;8324324;28;19944;-47
2021/07/27 19:19:00;;;;;;;;;;;25.00;54.60;;;;;;8311125;28;19928;-48
2021/07/27 19:23:00;;;;;;;;;;;25.00;54.70;;;;;;8318224;28;20487;-47
2021/07/27 19:27:01;;;;;;;;;;;25.00;54.70;;;;;;8322114;28;20006;-43
2021/07/27 19:31:02;;;;;;;;;;;25.00;54.60;;;;;;8319351;28;20432;-46
2021/07/27 19:35:04;;;;;;;;;;;24.90;54.40;;;;;;8323582;28;20318;-46
2021/07/27 19:39:04;;;;;;;;;;;24.80;54.30;;;;;;8320029;28;19921;-45
2021/07/27 19:47:21;;;;;;;;;;;24.80;54.20;;;;;;8307999;28;19925;-47
2021/07/27 19:51:21;;;;;;;;;;;24.80;54.20;;;;;;8322635;28;20361;-51
2021/07/27 19:55:22;;;;;;;;;;;24.70;54.40;;;;;;8311237;28;19921;-45
2021/07/27 19:59:23;;;;;;;;;;;24.80;54.30;;;;;;8315386;28;19921;-43
2021/07/27 20:03:24;;;;;;;;;;;24.80;54.20;;;;;;8321676;28;19957;-44
2021/07/27 20:07:24;;;;;;;;;;;24.80;54.40;;;;;;8322904;28;19935;-46
2021/07/27 20:11:25;;;;;;;;;;;24.70;54.30;;;;;;8327909;28;20007;-45
2021/07/27 20:15:25;;;;;;;;;;;24.80;54.40;;;;;;8318205;28;19925;-45
2021/07/27 20:19:26;;;;;;;;;;;24.70;54.50;;;;;;8320872;28;19925;-45
2021/07/27 20:23:26;;;;;;;;;;;24.70;55.00;;;;;;8320800;28;20004;-46
2021/07/27 20:27:26;;;;;;;;;;;24.70;54.30;;;;;;8328515;28;19917;-45
2021/07/27 20:31:27;;;;;;;;;;;24.70;55.70;;;;;;8328809;28;19917;-46
2021/07/27 20:35:27;;;;;;;;;;;24.70;55.20;;;;;;8311609;28;19987;-45
2021/07/27 20:39:28;;;;;;;;;;;24.70;54.30;;;;;;8320991;28;19922;-46
2021/07/27 20:43:28;;;;;;;;;;;24.80;54.00;;;;;;8301635;28;19928;-46
2021/07/27 20:47:29;;;;;;;;;;;24.90;53.80;;;;;;8299551;28;20355;-45
2021/07/27 20:51:29;;;;;;;;;;;24.90;53.60;;;;;;8301280;28;20262;-44
2021/07/27 20:55:30;;;;;;;;;;;25.00;53.40;;;;;;8300570;28;20032;-45
2021/07/27 20:59:30;;;;;;;;;;;25.00;53.30;;;;;;8299884;28;19952;-45
2021/07/27 21:03:33;;;;;;;;;;;25.00;53.20;;;;;;8301686;28;19921;-46
2021/07/27 21:07:33;;;;;;;;;;;25.00;53.10;;;;;;8300860;28;19929;-45
2021/07/27 21:11:34;;;;;;;;;;;25.00;53.00;;;;;;8300217;28;20016;-45
2021/07/27 21:15:35;;;;;;;;;;;25.00;53.00;;;;;;8300520;28;20286;-45
2021/07/27 21:19:35;;;;;;;;;;;25.10;53.00;;;;;;8301207;28;19921;-45
2021/07/27 21:23:35;;;;;;;;;;;25.10;53.00;;;;;;8299781;28;19941;-45
2021/07/27 21:27:36;;;;;;;;;;;25.00;52.90;;;;;;8300501;28;19917;-45
2021/07/27 21:31:36;;;;;;;;;;;25.10;52.90;;;;;;8300303;28;19917;-47
2021/07/27 21:35:37;;;;;;;;;;;25.10;52.90;;;;;;8300038;28;19920;-46
2021/07/27 21:39:37;;;;;;;;;;;25.00;52.80;;;;;;8300194;28;20260;-45
2021/07/27 21:43:38;;;;;;;;;;;25.00;52.70;;;;;;8299611;28;20290;-47
2021/07/27 21:47:38;;;;;;;;;;;25.00;52.70;;;;;;8299249;28;19949;-46
2021/07/27 21:51:38;;;;;;;;;;;25.00;52.70;;;;;;8299322;28;19918;-45
2021/07/27 21:55:39;;;;;;;;;;;25.00;52.70;;;;;;8300070;28;19913;-46
2021/07/27 21:59:40;;;;;;;;;;;25.00;52.70;;;;;;8298766;28;20294;-44
2021/07/27 22:03:40;;;;;;;;;;;25.00;52.70;;;;;;8315949;28;19948;-45
2021/07/27 22:07:40;;;;;;;;;;;25.00;52.60;;;;;;8331657;28;19921;-45
2021/07/27 22:11:41;;;;;;;;;;;25.00;52.60;;;;;;8331716;28;19917;-45
2021/07/27 22:15:41;;;;;;;;;;;25.00;52.60;;;;;;8331893;28;19917;-46
2021/07/27 22:19:42;;;;;;;;;;;25.00;53.10;;;;;;8331281;28;19948;-45
2021/07/27 22:23:42;;;;;;;;;;;25.00;52.60;;;;;;8330787;28;19925;-45
2021/07/27 22:27:43;;;;;;;;;;;25.00;52.60;;;;;;8331440;28;19960;-45
2021/07/27 22:31:43;;;;;;;;;;;25.00;52.60;;;;;;8331161;28;20024;-45
2021/07/27 22:35:44;;;;;;;;;;;25.00;52.50;;;;;;8330535;28;19925;-45
2021/07/27 22:39:44;;;;;;;;;;;25.00;52.50;;;;;;8330857;28;20003;-44
2021/07/27 22:43:44;;;;;;;;;;;25.00;52.50;;;;;;8330722;28;19925;-45
2021/07/27 22:47:45;;;;;;;;;;;25.00;52.40;;;;;;8331015;28;20401;-45
2021/07/27 22:51:45;;;;;;;;;;;24.90;52.40;;;;;;8330491;28;19952;-45
2021/07/27 22:55:46;;;;;;;;;;;24.90;52.40;;;;;;8329996;28;20335;-46
2021/07/27 22:59:46;;;;;;;;;;;24.90;52.40;;;;;;8330616;28;20007;-45
2021/07/27 23:03:47;;;;;;;;;;;24.90;52.40;;;;;;8331148;28;19963;-45
2021/07/27 23:07:48;;;;;;;;;;;24.90;52.40;;;;;;8329727;28;19928;-45
2021/07/27 23:11:49;;;;;;;;;;;24.90;52.40;;;;;;8330157;28;20314;-46
2021/07/27 23:15:50;;;;;;;;;;;24.90;52.30;;;;;;8330199;28;19924;-45
2021/07/27 23:19:50;;;;;;;;;;;24.90;52.40;;;;;;8329649;28;19913;-45
2021/07/27 23:23:55;;;;;;;;;;;24.90;52.90;;;;;;8330812;28;19921;-44
2021/07/27 23:28:01;;;;;;;;;;;24.90;52.30;;;;;;8329902;28;20012;-45
2021/07/27 23:32:02;;;;;;;;;;;24.90;52.30;;;;;;8329458;28;19917;-46
2021/07/27 23:36:02;;;;;;;;;;;24.80;52.30;;;;;;8329687;28;19917;-45
2021/07/27 23:40:04;;;;;;;;;;;24.80;52.30;;;;;;8330315;28;19920;-46
2021/07/27 23:44:04;;;;;;;;;;;24.90;52.30;;;;;;8332289;28;20048;-44
2021/07/27 23:48:05;;;;;;;;;;;24.80;52.20;;;;;;8336077;28;19932;-45